createdAt,value
2022-11-25T00:01:22.878Z,4.53
2022-11-25T00:03:51.814Z,4.93
2022-11-25T00:06:21.383Z,4.57
2022-11-25T00:08:51.409Z,4.47
2022-11-25T00:11:19.800Z,4.33
2022-11-25T00:13:49.097Z,3.83
2022-11-25T00:16:20.406Z,3.77
2022-11-25T00:18:49.704Z,3.80
2022-11-25T00:21:19.685Z,3.80
2022-11-25T00:23:53.350Z,4.07
2022-11-25T00:26:22.351Z,3.03
2022-11-25T00:28:51.427Z,1.87
2022-11-25T00:31:22.769Z,1.60
2022-11-25T00:33:51.548Z,1.50
2022-11-25T00:36:21.651Z,1.50
2022-11-25T00:38:54.682Z,1.83
2022-11-25T00:41:40.992Z,1.83
2022-11-25T00:44:29.001Z,1.70
2022-11-25T00:46:58.810Z,1.73
2022-11-25T00:49:27.440Z,1.50
2022-11-25T00:51:55.816Z,1.70
2022-11-25T00:54:24.133Z,1.67
2022-11-25T00:56:52.864Z,1.67
2022-11-25T00:59:21.338Z,1.90
2022-11-25T01:01:50.110Z,2.43
2022-11-25T01:04:19.805Z,1.90
2022-11-25T01:06:47.845Z,2.00
2022-11-25T01:09:15.888Z,2.37
2022-11-25T01:11:44.120Z,2.40
2022-11-25T01:14:12.807Z,2.30
2022-11-25T01:16:41.030Z,2.30
2022-11-25T01:19:09.148Z,1.73
2022-11-25T01:21:38.998Z,1.50
2022-11-25T01:24:08.297Z,1.10
2022-11-25T01:26:38.115Z,1.17
2022-11-25T01:29:08.061Z,1.27
2022-11-25T01:31:37.796Z,1.10
2022-11-25T01:34:08.527Z,1.07
2022-11-25T01:36:36.552Z,1.10
2022-11-25T01:39:06.765Z,0.90
2022-11-25T01:41:36.080Z,1.20
2022-11-25T01:44:13.161Z,1.30
2022-11-25T01:46:59.475Z,1.10
2022-11-25T01:49:33.254Z,1.10
2022-11-25T01:52:07.535Z,1.10
2022-11-25T01:54:43.705Z,1.20
2022-11-25T01:57:15.092Z,0.97
2022-11-25T01:59:49.644Z,1.10
2022-11-25T02:02:19.136Z,1.10
2022-11-25T02:04:49.020Z,1.20
2022-11-25T02:07:25.150Z,1.13
2022-11-25T02:09:56.964Z,1.10
2022-11-25T02:12:25.436Z,1.20
2022-11-25T02:14:56.318Z,0.90
2022-11-25T02:17:25.019Z,1.10
2022-11-25T02:20:01.145Z,1.03
2022-11-25T02:22:42.520Z,1.10
2022-11-25T02:25:16.257Z,1.10
2022-11-25T02:27:47.369Z,1.00
2022-11-25T02:30:15.755Z,1.10
2022-11-25T02:32:47.211Z,1.20
2022-11-25T02:35:31.654Z,1.07
2022-11-25T02:38:05.219Z,1.10
2022-11-25T02:40:37.191Z,1.10
2022-11-25T02:43:05.265Z,1.00
2022-11-25T02:45:45.603Z,0.97
2022-11-25T02:48:13.802Z,1.17
2022-11-25T02:50:41.789Z,0.90
2022-11-25T02:53:10.105Z,0.90
2022-11-25T02:55:39.768Z,1.00
2022-11-25T02:58:08.254Z,1.30
2022-11-25T03:00:36.450Z,1.10
2022-11-25T03:03:04.976Z,1.30
2022-11-25T03:05:33.063Z,1.10
2022-11-25T03:08:01.388Z,1.40
2022-11-25T03:10:29.660Z,1.10
2022-11-25T03:12:59.240Z,1.13
2022-11-25T03:15:27.340Z,6.83
2022-11-25T03:17:56.613Z,13.37
2022-11-25T03:20:24.961Z,14.10
2022-11-25T03:22:53.011Z,12.83
2022-11-25T03:25:21.920Z,11.67
2022-11-25T03:27:50.360Z,10.73
2022-11-25T03:30:21.723Z,10.53
2022-11-25T03:32:50.288Z,10.00
2022-11-25T03:35:18.844Z,9.03
2022-11-25T03:37:46.914Z,10.60
2022-11-25T03:40:17.015Z,11.10
2022-11-25T03:42:45.343Z,10.10
2022-11-25T03:45:16.045Z,8.10
2022-11-25T03:47:46.141Z,7.30
2022-11-25T03:50:16.798Z,7.20
2022-11-25T03:52:45.061Z,6.90
2022-11-25T03:55:14.165Z,6.63
2022-11-25T03:57:42.909Z,5.50
2022-11-25T04:00:12.517Z,5.60
2022-11-25T04:02:40.530Z,5.33
2022-11-25T04:05:10.601Z,5.20
2022-11-25T04:07:38.720Z,5.10
2022-11-25T04:10:08.036Z,5.70
2022-11-25T04:12:47.863Z,5.00
2022-11-25T04:15:16.420Z,4.60
2022-11-25T04:17:44.689Z,5.00
2022-11-25T04:20:16.034Z,5.07
2022-11-25T04:22:44.332Z,5.50
2022-11-25T04:25:13.052Z,6.20
2022-11-25T04:27:41.122Z,6.40
2022-11-25T04:30:10.123Z,5.97
2022-11-25T04:32:39.021Z,5.90
2022-11-25T04:35:07.754Z,5.83
2022-11-25T04:37:37.185Z,5.30
2022-11-25T04:40:06.316Z,4.83
2022-11-25T04:42:34.845Z,4.47
2022-11-25T04:45:22.455Z,5.30
2022-11-25T04:47:52.054Z,6.20
2022-11-25T04:50:23.669Z,4.63
2022-11-25T04:52:53.004Z,4.03
2022-11-25T04:55:21.049Z,4.70
2022-11-25T04:57:49.132Z,5.00
2022-11-25T05:00:16.937Z,4.50
2022-11-25T05:02:45.025Z,3.93
2022-11-25T05:05:13.129Z,3.83
2022-11-25T05:07:41.239Z,4.50
2022-11-25T05:10:11.665Z,4.37
2022-11-25T05:12:39.948Z,4.90
2022-11-25T05:15:09.315Z,5.20
2022-11-25T05:17:37.442Z,5.40
2022-11-25T05:20:06.847Z,6.07
2022-11-25T05:22:35.785Z,6.33
2022-11-25T05:25:05.712Z,6.63
2022-11-25T05:27:35.129Z,6.60
2022-11-25T05:30:03.215Z,4.60
2022-11-25T05:32:31.232Z,4.70
2022-11-25T05:34:59.260Z,4.53
2022-11-25T05:37:27.324Z,4.37
2022-11-25T05:39:55.348Z,4.33
2022-11-25T05:42:23.577Z,3.70
2022-11-25T05:44:52.924Z,3.83
2022-11-25T05:47:20.896Z,4.30
2022-11-25T05:49:48.858Z,5.00
2022-11-25T05:52:16.898Z,5.30
2022-11-25T05:54:44.824Z,8.67
2022-11-25T05:57:13.062Z,8.50
2022-11-25T05:59:41.034Z,8.00
2022-11-25T06:02:10.868Z,7.60
2022-11-25T06:04:39.425Z,8.10
2022-11-25T06:07:07.716Z,7.07
2022-11-25T06:09:36.397Z,7.87
2022-11-25T06:12:04.584Z,6.43
2022-11-25T06:14:32.778Z,6.70
2022-11-25T06:17:00.765Z,7.80
2022-11-25T06:19:30.284Z,7.23
2022-11-25T06:21:59.422Z,8.37
2022-11-25T06:24:27.387Z,8.73
2022-11-25T06:26:55.379Z,8.83
2022-11-25T06:29:23.342Z,8.53
2022-11-25T06:31:51.451Z,8.27
2022-11-25T06:34:19.449Z,8.50
2022-11-25T06:36:50.106Z,7.87
2022-11-25T06:39:18.112Z,7.47
2022-11-25T06:41:47.227Z,7.93
2022-11-25T06:44:15.342Z,8.63
2022-11-25T06:46:49.288Z,7.00
2022-11-25T06:49:17.484Z,6.53
2022-11-25T06:51:45.422Z,5.53
2022-11-25T06:54:14.823Z,5.60
2022-11-25T06:56:42.822Z,5.27
2022-11-25T06:59:10.861Z,4.90
2022-11-25T07:01:39.446Z,6.03
2022-11-25T07:04:07.455Z,4.30
2022-11-25T07:06:35.481Z,4.53
2022-11-25T07:09:04.419Z,4.67
2022-11-25T07:11:36.220Z,4.47
2022-11-25T07:14:05.835Z,4.40
2022-11-25T07:16:36.044Z,4.90
2022-11-25T07:19:04.734Z,5.13
2022-11-25T07:21:34.394Z,5.17
2022-11-25T07:24:05.600Z,4.47
2022-11-25T07:26:39.558Z,5.20
2022-11-25T07:29:29.306Z,4.83
2022-11-25T07:31:58.291Z,4.20
2022-11-25T07:34:26.305Z,4.43
2022-11-25T07:36:54.523Z,4.23
2022-11-25T07:39:24.380Z,3.83
2022-11-25T07:41:55.095Z,3.97
2022-11-25T07:44:23.284Z,4.40
2022-11-25T07:46:52.021Z,4.73
2022-11-25T07:49:21.842Z,4.43
2022-11-25T07:51:53.616Z,4.57
2022-11-25T07:54:23.091Z,4.30
2022-11-25T07:56:53.675Z,4.57
2022-11-25T07:59:23.110Z,5.20
2022-11-25T08:01:52.042Z,4.80
2022-11-25T08:04:21.302Z,4.17
2022-11-25T08:06:53.466Z,4.60
2022-11-25T08:09:25.300Z,4.03
2022-11-25T08:11:54.894Z,4.30
2022-11-25T08:14:23.027Z,3.80
2022-11-25T08:16:51.242Z,4.10
2022-11-25T08:19:19.801Z,4.33
2022-11-25T08:21:49.897Z,3.93
2022-11-25T08:24:20.492Z,3.97
2022-11-25T08:26:49.787Z,4.40
2022-11-25T08:29:20.864Z,4.33
2022-11-25T08:31:48.938Z,5.00
2022-11-25T08:34:19.940Z,4.30
2022-11-25T08:36:48.979Z,4.30
2022-11-25T08:42:07.294Z,4.30
2022-11-25T08:44:37.291Z,4.40
2022-11-25T08:47:05.624Z,4.20
2022-11-25T08:49:39.175Z,3.53
2022-11-25T08:52:09.235Z,4.20
2022-11-25T08:54:37.384Z,4.60
2022-11-25T08:57:05.990Z,4.07
2022-11-25T08:59:34.170Z,3.73
2022-11-25T09:02:03.974Z,4.13
2022-11-25T09:04:32.131Z,4.27
2022-11-25T09:07:00.181Z,4.20
2022-11-25T09:09:28.915Z,3.00
2022-11-25T09:11:56.984Z,3.20
2022-11-25T09:14:25.382Z,3.60
2022-11-25T09:16:53.738Z,3.97
2022-11-25T09:19:23.132Z,4.20
2022-11-25T09:21:51.175Z,3.30
2022-11-25T09:24:19.232Z,2.63
2022-11-25T09:26:47.658Z,2.90
2022-11-25T09:29:15.593Z,3.30
2022-11-25T09:31:43.665Z,3.30
2022-11-25T09:34:11.770Z,2.73
2022-11-25T09:36:41.177Z,2.60
2022-11-25T09:39:09.216Z,2.40
2022-11-25T09:42:12.702Z,2.50
2022-11-25T09:45:22.659Z,2.30
2022-11-25T09:48:01.330Z,1.90
2022-11-25T09:50:46.851Z,2.00
2022-11-25T09:53:28.294Z,1.80
2022-11-25T09:56:03.749Z,1.70
2022-11-25T09:58:35.643Z,1.80
2022-11-25T10:01:07.254Z,1.70
2022-11-25T10:03:42.394Z,1.53
2022-11-25T10:06:17.533Z,1.63
2022-11-25T10:08:50.468Z,1.57
2022-11-25T10:11:32.611Z,1.90
2022-11-25T10:14:06.814Z,1.90
2022-11-25T10:16:40.627Z,1.80
2022-11-25T10:19:18.114Z,1.60
2022-11-25T10:21:46.918Z,1.90
2022-11-25T10:24:18.446Z,1.30
2022-11-25T10:26:49.713Z,1.50
2022-11-25T10:29:25.753Z,1.43
2022-11-25T10:32:01.708Z,1.67
2022-11-25T10:34:36.859Z,1.30
2022-11-25T10:37:12.820Z,1.00
2022-11-25T10:39:42.277Z,1.10
2022-11-25T10:42:17.393Z,1.00
2022-11-25T10:44:45.467Z,1.20
2022-11-25T10:47:35.552Z,1.00
2022-11-25T10:50:21.455Z,1.07
2022-11-25T10:52:56.579Z,1.10
2022-11-25T10:55:27.824Z,0.90
2022-11-25T10:57:56.645Z,0.90
2022-11-25T11:00:35.253Z,1.17
2022-11-25T11:03:15.709Z,1.20
2022-11-25T11:05:48.957Z,1.17
2022-11-25T11:08:20.922Z,1.10
2022-11-25T11:11:12.716Z,1.10
2022-11-25T11:13:40.824Z,1.10
2022-11-25T11:16:29.237Z,1.10
2022-11-25T11:18:57.652Z,0.97
2022-11-25T11:21:31.455Z,1.17
2022-11-25T11:24:01.377Z,1.00
2022-11-25T11:26:33.366Z,1.10
2022-11-25T11:29:04.184Z,1.10
2022-11-25T11:31:39.266Z,1.00
2022-11-25T11:34:24.331Z,1.00
2022-11-25T11:37:09.818Z,1.00
2022-11-25T11:40:00.137Z,1.00
2022-11-25T11:42:38.827Z,1.03
2022-11-25T11:45:23.542Z,1.20
2022-11-25T11:48:05.553Z,1.00
2022-11-25T11:50:37.468Z,1.20
2022-11-25T11:53:17.199Z,1.10
2022-11-25T11:56:26.665Z,1.20
2022-11-25T11:59:02.845Z,1.10
2022-11-25T12:01:47.540Z,1.07
2022-11-25T12:04:21.598Z,1.10
2022-11-25T12:07:03.714Z,1.10
2022-11-25T12:09:38.817Z,1.30
2022-11-25T12:12:12.734Z,0.90
2022-11-25T12:14:47.403Z,1.07
2022-11-25T12:17:19.856Z,0.93
2022-11-25T12:19:56.416Z,1.20
2022-11-25T12:22:31.328Z,1.00
2022-11-25T12:25:10.072Z,0.90
2022-11-25T12:27:41.648Z,1.10
2022-11-25T12:30:14.924Z,1.20
2022-11-25T12:32:54.606Z,0.90
2022-11-25T12:35:32.646Z,1.20
2022-11-25T12:38:07.145Z,0.93
2022-11-25T12:40:39.047Z,1.00
2022-11-25T12:43:22.304Z,1.00
2022-11-25T12:46:01.177Z,1.20
2022-11-25T12:48:29.321Z,1.00
2022-11-25T12:51:04.131Z,1.10
2022-11-25T12:53:41.869Z,1.30
2022-11-25T12:56:19.715Z,1.40
2022-11-25T12:58:57.148Z,1.23
2022-11-25T13:01:49.017Z,1.20
2022-11-25T13:05:18.598Z,1.20
2022-11-25T13:07:58.136Z,1.20
2022-11-25T13:10:39.480Z,1.50
2022-11-25T13:13:34.471Z,1.30
2022-11-25T13:16:06.004Z,1.50
2022-11-25T13:18:41.300Z,1.60
2022-11-25T13:21:10.791Z,1.17
2022-11-25T13:23:53.373Z,1.13
2022-11-25T13:26:49.139Z,1.00
2022-11-25T13:30:00.153Z,1.00
2022-11-25T13:32:40.585Z,1.07
2022-11-25T13:35:48.172Z,1.10
2022-11-25T13:38:59.029Z,1.00
2022-11-25T13:41:37.666Z,1.10
2022-11-25T13:44:08.380Z,1.13
2022-11-25T13:46:41.304Z,1.20
2022-11-25T13:49:26.481Z,1.23
2022-11-25T13:51:58.314Z,0.90
2022-11-25T13:54:32.905Z,1.10
2022-11-25T13:57:27.217Z,1.20
2022-11-25T13:59:58.535Z,1.10
2022-11-25T14:02:50.581Z,1.30
2022-11-25T14:05:45.052Z,1.20
2022-11-25T14:08:40.414Z,1.23
2022-11-25T14:11:35.250Z,1.10
2022-11-25T14:14:21.304Z,1.10
2022-11-25T14:17:02.480Z,1.00
2022-11-25T14:19:53.017Z,1.00
2022-11-25T14:22:38.413Z,1.13
2022-11-25T14:25:17.665Z,1.10
2022-11-25T14:27:49.597Z,1.17
2022-11-25T14:30:19.053Z,1.10
2022-11-25T14:32:57.084Z,1.60
2022-11-25T14:35:31.571Z,1.70
2022-11-25T14:38:04.436Z,2.50
2022-11-25T14:40:39.867Z,1.90
2022-11-25T14:43:14.094Z,1.80
2022-11-25T14:45:42.336Z,1.13
2022-11-25T14:48:17.364Z,1.10
2022-11-25T14:50:56.724Z,1.00
2022-11-25T14:53:25.706Z,1.03
2022-11-25T14:55:56.407Z,1.10
2022-11-25T14:58:24.753Z,1.17
2022-11-25T15:01:00.131Z,1.27
2022-11-25T15:03:28.406Z,1.20
2022-11-25T15:05:58.179Z,1.40
2022-11-25T15:08:27.582Z,1.20
2022-11-25T15:10:59.345Z,1.53
2022-11-25T15:13:34.640Z,1.60
2022-11-25T15:16:09.332Z,1.70
2022-11-25T15:18:39.412Z,1.90
2022-11-25T15:21:07.895Z,1.63
2022-11-25T15:23:39.307Z,1.90
2022-11-25T15:26:19.341Z,1.83
2022-11-25T15:28:48.184Z,1.90
2022-11-25T15:31:21.256Z,1.60
2022-11-25T15:33:55.280Z,1.70
2022-11-25T15:36:23.809Z,1.93
2022-11-25T15:38:52.397Z,2.00
2022-11-25T15:41:31.288Z,2.40
2022-11-25T15:44:02.246Z,2.40
2022-11-25T15:46:32.130Z,2.57
2022-11-25T15:49:02.543Z,2.60
2022-11-25T15:51:35.229Z,2.40
2022-11-25T15:54:06.238Z,2.37
2022-11-25T15:56:39.884Z,2.43
2022-11-25T15:59:41.179Z,2.40
2022-11-25T16:02:45.873Z,2.40
2022-11-25T16:05:20.172Z,2.30
2022-11-25T16:08:02.900Z,2.70
2022-11-25T16:10:33.913Z,2.10
2022-11-25T16:13:29.236Z,2.10
2022-11-25T16:16:00.621Z,2.27
2022-11-25T16:18:40.296Z,2.40
2022-11-25T16:21:11.827Z,2.17
2022-11-25T16:23:43.152Z,2.67
2022-11-25T16:26:17.878Z,2.77
2022-11-25T16:28:55.224Z,2.50
2022-11-25T16:31:24.106Z,2.10
2022-11-25T16:33:55.358Z,2.00
2022-11-25T16:36:23.389Z,2.40
2022-11-25T16:38:53.405Z,2.00
2022-11-25T16:41:24.454Z,2.57
2022-11-25T16:43:57.091Z,2.70
2022-11-25T16:46:26.936Z,2.50
2022-11-25T16:48:55.131Z,2.60
2022-11-25T16:51:25.489Z,2.67
2022-11-25T16:53:53.576Z,2.80
2022-11-25T16:56:27.926Z,2.67
2022-11-25T16:58:59.211Z,2.30
2022-11-25T17:01:30.462Z,1.70
2022-11-25T17:03:58.730Z,1.50
2022-11-25T17:06:28.493Z,1.90
2022-11-25T17:08:56.583Z,2.33
2022-11-25T17:11:29.845Z,2.47
2022-11-25T17:14:02.478Z,2.03
2022-11-25T17:16:31.286Z,2.70
2022-11-25T17:19:01.312Z,3.10
2022-11-25T17:21:29.780Z,2.90
2022-11-25T17:24:02.853Z,2.70
2022-11-25T17:26:38.950Z,2.90
2022-11-25T17:29:13.235Z,3.13
2022-11-25T17:31:42.022Z,2.50
2022-11-25T17:34:14.742Z,2.60
2022-11-25T17:36:42.929Z,2.77
2022-11-25T17:39:12.485Z,2.90
2022-11-25T17:41:45.174Z,3.10
2022-11-25T17:44:26.038Z,3.00
2022-11-25T17:46:54.110Z,2.70
2022-11-25T17:49:23.020Z,2.60
2022-11-25T17:51:51.986Z,2.40
2022-11-25T17:54:20.007Z,2.43
2022-11-25T17:56:52.325Z,2.73
2022-11-25T17:59:26.562Z,3.00
2022-11-25T18:01:55.997Z,2.60
2022-11-25T18:04:25.890Z,2.93
2022-11-25T18:06:53.976Z,3.30
2022-11-25T18:09:22.124Z,2.90
2022-11-25T18:11:53.224Z,3.00
2022-11-25T18:14:26.714Z,2.80
2022-11-25T18:16:55.822Z,2.87
2022-11-25T18:19:23.822Z,3.30
2022-11-25T18:21:51.776Z,2.50
2022-11-25T18:24:19.756Z,3.10
2022-11-25T18:26:53.077Z,2.93
2022-11-25T18:29:25.890Z,3.60
2022-11-25T18:31:56.609Z,3.23
2022-11-25T18:34:25.285Z,2.83
2022-11-25T18:36:54.355Z,3.30
2022-11-25T18:39:23.428Z,3.30
2022-11-25T18:41:53.976Z,2.73
2022-11-25T18:44:27.276Z,3.00
2022-11-25T18:46:55.443Z,2.93
2022-11-25T18:49:23.964Z,2.70
2022-11-25T18:51:51.975Z,2.93
2022-11-25T18:54:19.927Z,2.90
2022-11-25T18:56:52.373Z,2.87
2022-11-25T18:59:28.258Z,2.87
2022-11-25T19:01:56.425Z,2.60
2022-11-25T19:04:24.462Z,2.60
2022-11-25T19:06:52.714Z,2.40
2022-11-25T19:09:20.670Z,2.50
2022-11-25T19:11:52.783Z,2.50
2022-11-25T19:14:31.215Z,2.40
2022-11-25T19:17:03.098Z,2.50
2022-11-25T19:19:31.608Z,2.80
2022-11-25T19:22:03.346Z,2.60
2022-11-25T19:24:31.335Z,2.60
2022-11-25T19:26:59.346Z,2.50
2022-11-25T19:29:40.305Z,2.00
2022-11-25T19:32:20.445Z,2.50
2022-11-25T19:34:52.255Z,2.00
2022-11-25T19:37:22.379Z,1.90
2022-11-25T19:39:51.587Z,2.10
2022-11-25T19:42:19.959Z,2.00
2022-11-25T19:44:49.331Z,2.50
2022-11-25T19:47:20.569Z,2.40
2022-11-25T19:49:49.399Z,2.50
2022-11-25T19:52:19.570Z,2.70
2022-11-25T19:54:48.853Z,2.57
2022-11-25T19:57:18.522Z,2.50
2022-11-25T19:59:47.008Z,2.13
2022-11-25T20:02:18.878Z,2.40
2022-11-25T20:04:47.992Z,2.23
2022-11-25T20:07:19.508Z,2.60
2022-11-25T20:09:47.677Z,2.40
2022-11-25T20:12:21.653Z,2.47
2022-11-25T20:14:50.558Z,2.20
2022-11-25T20:17:31.018Z,2.20
2022-11-25T20:20:04.688Z,2.47
2022-11-25T20:22:37.518Z,2.50
2022-11-25T20:25:10.667Z,2.60
2022-11-25T20:27:38.754Z,2.37
2022-11-25T20:30:14.904Z,2.00
2022-11-25T20:32:44.353Z,2.40
2022-11-25T20:35:14.624Z,2.40
2022-11-25T20:37:54.071Z,2.40
2022-11-25T20:40:24.764Z,2.40
2022-11-25T20:42:54.094Z,2.40
2022-11-25T20:45:23.842Z,2.40
2022-11-25T20:47:53.541Z,1.70
2022-11-25T20:50:31.582Z,2.10
2022-11-25T20:52:59.672Z,1.60
2022-11-25T20:55:27.658Z,1.93
2022-11-25T20:57:56.414Z,2.00
2022-11-25T21:00:26.868Z,1.80
2022-11-25T21:02:57.345Z,1.70
2022-11-25T21:05:27.591Z,1.67
2022-11-25T21:07:55.857Z,2.03
2022-11-25T21:10:28.342Z,2.13
2022-11-25T21:12:57.398Z,2.10
2022-11-25T21:15:27.666Z,1.90
2022-11-25T21:17:59.631Z,1.80
2022-11-25T21:20:27.946Z,2.00
2022-11-25T21:22:59.093Z,2.10
2022-11-25T21:25:27.479Z,1.80
2022-11-25T21:27:55.797Z,2.00
2022-11-25T21:30:25.669Z,2.00
2022-11-25T21:32:56.911Z,2.03
2022-11-25T21:35:29.398Z,2.10
2022-11-25T21:37:57.538Z,2.23
2022-11-25T21:40:33.303Z,2.50
2022-11-25T21:43:01.943Z,2.30
2022-11-25T21:45:30.009Z,2.10
2022-11-25T21:48:00.155Z,2.03
2022-11-25T21:50:30.026Z,2.23
2022-11-25T21:52:58.311Z,2.33
2022-11-25T21:55:26.658Z,2.50
2022-11-25T21:57:54.625Z,2.30
2022-11-25T22:00:26.419Z,2.07
2022-11-25T22:02:54.678Z,1.97
2022-11-25T22:05:26.688Z,2.37
2022-11-25T22:07:55.316Z,2.00
2022-11-25T22:10:23.968Z,2.47
2022-11-25T22:12:52.097Z,2.03
2022-11-25T22:15:22.587Z,2.40
2022-11-25T22:17:54.259Z,2.70
2022-11-25T22:20:33.460Z,2.40
2022-11-25T22:23:02.356Z,2.60
2022-11-25T22:25:32.381Z,2.00
2022-11-25T22:28:00.395Z,2.50
2022-11-25T22:30:28.455Z,2.40
2022-11-25T22:33:01.634Z,2.67
2022-11-25T22:35:31.025Z,1.97
2022-11-25T22:37:58.972Z,1.90
2022-11-25T22:40:27.110Z,2.10
2022-11-25T22:42:56.785Z,2.00
2022-11-25T22:45:32.061Z,1.90
2022-11-25T22:48:06.824Z,2.00
2022-11-25T22:50:36.808Z,2.07
2022-11-25T22:53:12.739Z,1.87
2022-11-25T22:55:40.767Z,2.13
2022-11-25T22:58:08.787Z,1.90
2022-11-25T23:00:39.637Z,1.83
2022-11-25T23:03:13.992Z,1.90
2022-11-25T23:05:43.434Z,1.77
2022-11-25T23:08:14.308Z,1.80
2022-11-25T23:10:42.848Z,2.60
2022-11-25T23:13:11.495Z,1.50
2022-11-25T23:15:48.570Z,1.40
2022-11-25T23:18:21.645Z,1.20
2022-11-25T23:20:50.968Z,1.77
2022-11-25T23:23:21.264Z,1.50
2022-11-25T23:25:49.881Z,1.50
2022-11-25T23:28:18.505Z,1.60
2022-11-25T23:30:49.874Z,1.50
2022-11-25T23:33:24.782Z,1.40
2022-11-25T23:35:54.418Z,1.40
2022-11-25T23:38:25.602Z,1.50
2022-11-25T23:40:53.643Z,1.33
2022-11-25T23:43:22.093Z,1.60
2022-11-25T23:45:53.706Z,1.50
2022-11-25T23:48:27.090Z,1.60
2022-11-25T23:50:58.179Z,1.80
2022-11-25T23:53:29.556Z,1.90
2022-11-25T23:55:57.797Z,1.90
2022-11-25T23:58:26.049Z,1.40
